Time;durP1;ratioP1;P1;durP2;ratioP2;P2;SDS_P1;SDS_P2;PMS_P1;PMS_P2;Temp;Humidity;BMP_temperature;BMP_pressure;BME280_temperature;BME280_humidity;BME280_pressure;Samples;Min_cycle;Max_cycle;Signal;HPM_P1;HPM_P2
2022/07/24 00:01:28;;;;;;;4.13;3.72;;;22.40;90.60;;;;;;5074721;28;20055;-44
2022/07/24 00:03:53;;;;;;;5.80;4.72;;;22.30;90.70;;;;;;5075001;28;20025;-45
2022/07/24 00:06:19;;;;;;;4.70;3.58;;;22.20;90.80;;;;;;5074433;28;20029;-48
2022/07/24 00:08:44;;;;;;;5.82;3.95;;;22.30;90.90;;;;;;5073650;28;20035;-49
2022/07/24 00:11:11;;;;;;;3.97;3.45;;;22.30;91.00;;;;;;5074464;28;20476;-46
2022/07/24 00:13:36;;;;;;;4.78;4.07;;;22.20;91.10;;;;;;5074403;28;20074;-45
2022/07/24 00:16:02;;;;;;;6.32;3.88;;;22.30;91.10;;;;;;5074335;28;20033;-46
2022/07/24 00:18:27;;;;;;;6.72;4.20;;;22.20;91.20;;;;;;5073658;28;20068;-49
2022/07/24 00:20:53;;;;;;;10.82;4.18;;;22.10;91.20;;;;;;5073826;28;20492;-47
2022/07/24 00:23:18;;;;;;;4.18;3.03;;;22.10;91.30;;;;;;5074350;28;20085;-44
2022/07/24 00:25:44;;;;;;;5.88;3.70;;;22.10;91.50;;;;;;5074289;28;20032;-43
2022/07/24 00:28:09;;;;;;;8.82;3.65;;;22.10;91.40;;;;;;5073774;28;20051;-43
2022/07/24 00:30:37;;;;;;;6.13;3.47;;;22.00;91.60;;;;;;5073831;28;20480;-44
2022/07/24 00:33:03;;;;;;;5.25;3.15;;;21.90;91.70;;;;;;5074428;28;20039;-49
2022/07/24 00:35:28;;;;;;;5.82;3.78;;;21.90;91.80;;;;;;5073920;28;20503;-51
2022/07/24 00:37:54;;;;;;;6.82;3.40;;;21.90;91.90;;;;;;5073448;28;20041;-47
2022/07/24 00:40:20;;;;;;;5.07;3.50;;;21.90;91.90;;;;;;5073878;28;20035;-46
2022/07/24 00:42:45;;;;;;;5.20;3.55;;;21.80;92.10;;;;;;5073759;28;20025;-49
2022/07/24 00:45:11;;;;;;;4.03;3.72;;;21.80;92.20;;;;;;5071970;28;20392;-47
2022/07/24 00:47:36;;;;;;;5.20;3.70;;;21.80;92.20;;;;;;5073897;28;20020;-45
2022/07/24 00:50:04;;;;;;;8.25;3.42;;;21.80;92.20;;;;;;5074013;28;20033;-45
2022/07/24 00:52:30;;;;;;;4.20;3.50;;;21.70;92.40;;;;;;5074001;28;20078;-48
2022/07/24 00:54:55;;;;;;;5.97;3.58;;;21.70;92.40;;;;;;5074385;28;20048;-42
2022/07/24 00:57:21;;;;;;;5.82;3.45;;;21.70;92.50;;;;;;5073200;28;20029;-47
2022/07/24 00:59:46;;;;;;;5.20;3.47;;;21.70;92.50;;;;;;5073920;28;20319;-46
2022/07/24 01:02:12;;;;;;;3.90;3.22;;;21.60;92.60;;;;;;5073250;28;20027;-49
2022/07/24 01:04:39;;;;;;;8.48;5.53;;;21.60;92.70;;;;;;5073565;28;20056;-46
2022/07/24 01:07:06;;;;;;;6.45;3.88;;;21.60;92.70;;;;;;5072540;28;20032;-43
2022/07/24 01:09:32;;;;;;;4.10;3.80;;;21.60;92.80;;;;;;5073414;28;20028;-43
2022/07/24 01:11:59;;;;;;;9.55;3.47;;;21.60;92.90;;;;;;5073206;28;20035;-48
2022/07/24 01:14:25;;;;;;;4.30;3.40;;;21.60;92.80;;;;;;5073324;28;20115;-47
2022/07/24 01:16:51;;;;;;;6.85;3.58;;;21.60;92.90;;;;;;5073084;28;20024;-46
2022/07/24 01:19:17;;;;;;;4.82;3.65;;;21.50;93.00;;;;;;5073070;28;20057;-46
2022/07/24 01:21:49;;;;;;;4.65;3.45;;;21.50;93.00;;;;;;5073474;28;20504;-46
2022/07/24 01:24:15;;;;;;;7.18;3.30;;;21.50;93.00;;;;;;5073093;28;20400;-49
2022/07/24 01:26:40;;;;;;;3.50;3.20;;;21.50;93.10;;;;;;5072828;28;20020;-42
2022/07/24 01:29:06;;;;;;;3.88;3.33;;;21.50;93.30;;;;;;5072534;28;20024;-46
2022/07/24 01:31:31;;;;;;;4.03;3.50;;;21.50;93.30;;;;;;5073049;28;20482;-42
2022/07/24 01:33:57;;;;;;;3.97;3.30;;;21.50;93.30;;;;;;5072762;28;20078;-50
2022/07/24 01:36:22;;;;;;;5.35;3.58;;;21.50;93.40;;;;;;5072967;28;20081;-41
2022/07/24 01:38:48;;;;;;;4.88;3.42;;;21.40;93.50;;;;;;5072306;28;20484;-42
2022/07/24 01:41:15;;;;;;;6.57;3.80;;;21.40;93.60;;;;;;5072922;28;20040;-41
2022/07/24 01:43:40;;;;;;;4.57;3.38;;;21.30;93.70;;;;;;5070679;28;20061;-45
2022/07/24 01:46:06;;;;;;;12.65;4.18;;;21.30;93.80;;;;;;5072674;28;20388;-43
2022/07/24 01:48:32;;;;;;;4.97;3.38;;;21.20;93.90;;;;;;5071982;28;20025;-45
2022/07/24 01:50:58;;;;;;;5.38;3.50;;;21.20;94.10;;;;;;5072058;28;20447;-49
2022/07/24 01:53:23;;;;;;;8.07;3.60;;;21.10;94.50;;;;;;5072469;28;20517;-47
2022/07/24 01:55:50;;;;;;;3.70;3.40;;;21.10;94.30;;;;;;5072364;28;20068;-44
2022/07/24 01:58:15;;;;;;;10.07;3.92;;;21.10;94.60;;;;;;5071859;28;20020;-45
2022/07/24 02:00:41;;;;;;;5.53;3.40;;;21.10;94.50;;;;;;5072189;28;20031;-44
2022/07/24 02:03:06;;;;;;;5.95;3.70;;;21.10;94.60;;;;;;5071995;28;20035;-42
2022/07/24 02:05:32;;;;;;;6.15;3.67;;;21.00;94.60;;;;;;5054300;28;20047;-42
2022/07/24 02:07:59;;;;;;;8.40;3.80;;;21.00;94.80;;;;;;5072084;28;20028;-47
2022/07/24 02:10:25;;;;;;;3.88;3.42;;;21.00;94.90;;;;;;5071919;28;20108;-48
2022/07/24 02:12:51;;;;;;;4.65;3.40;;;20.90;95.00;;;;;;5096412;22;20029;-50
2022/07/24 02:15:16;;;;;;;6.30;3.78;;;20.90;95.00;;;;;;5069871;28;20086;-46
2022/07/24 02:17:47;;;;;;;4.35;3.90;;;20.90;95.30;;;;;;5053519;28;20031;-48
2022/07/24 02:20:12;;;;;;;4.07;3.70;;;20.80;95.20;;;;;;5071601;28;20036;-53
2022/07/24 02:22:38;;;;;;;5.10;4.05;;;20.80;95.30;;;;;;5072234;28;20440;-49
2022/07/24 02:25:03;;;;;;;5.05;3.40;;;20.70;95.50;;;;;;5071908;28;20032;-48
2022/07/24 02:27:29;;;;;;;3.53;3.33;;;20.80;95.50;;;;;;5071517;28;20031;-49
2022/07/24 02:29:54;;;;;;;5.93;4.45;;;20.80;95.50;;;;;;5072422;28;20029;-46
2022/07/24 02:32:20;;;;;;;4.00;3.70;;;20.80;95.60;;;;;;5071862;28;20074;-50
2022/07/24 02:34:45;;;;;;;5.00;3.78;;;20.70;95.70;;;;;;5072573;28;20520;-50
2022/07/24 02:37:11;;;;;;;5.20;4.13;;;20.70;95.90;;;;;;5072172;28;20029;-49
2022/07/24 02:39:36;;;;;;;3.88;3.55;;;20.70;96.00;;;;;;5054001;28;20119;-47
2022/07/24 02:42:02;;;;;;;7.68;4.25;;;20.70;96.20;;;;;;5071763;28;20029;-47
2022/07/24 02:44:27;;;;;;;4.40;4.00;;;20.70;96.10;;;;;;5070149;28;20035;-53
2022/07/24 02:46:53;;;;;;;5.53;4.20;;;20.70;96.10;;;;;;5070934;28;20028;-53
2022/07/24 02:49:18;;;;;;;4.88;4.15;;;20.60;96.20;;;;;;5071680;28;20020;-48
2022/07/24 02:51:44;;;;;;;6.35;3.88;;;20.60;96.30;;;;;;5071513;28;20036;-50
2022/07/24 02:54:09;;;;;;;6.40;3.67;;;20.60;96.30;;;;;;5071632;28;20028;-49
2022/07/24 02:56:35;;;;;;;3.60;3.20;;;20.60;96.40;;;;;;5071618;28;20403;-48
2022/07/24 02:59:00;;;;;;;5.95;4.55;;;20.60;96.50;;;;;;5070887;28;20028;-47
2022/07/24 03:01:26;;;;;;;3.95;3.55;;;20.60;96.50;;;;;;5071652;28;20037;-48
2022/07/24 03:03:51;;;;;;;3.92;3.50;;;20.60;96.50;;;;;;5071479;28;20120;-52
2022/07/24 03:06:17;;;;;;;5.72;3.90;;;20.50;96.70;;;;;;5071157;28;20035;-47
2022/07/24 03:08:42;;;;;;;4.28;3.85;;;20.50;96.80;;;;;;5070705;28;20055;-46
2022/07/24 03:11:08;;;;;;;4.78;3.60;;;20.40;97.00;;;;;;5071329;28;20081;-45
2022/07/24 03:13:33;;;;;;;5.70;3.92;;;20.40;97.10;;;;;;5071193;28;20036;-47
2022/07/24 03:15:59;;;;;;;5.47;4.53;;;20.40;97.10;;;;;;5071370;28;20404;-47
2022/07/24 03:18:24;;;;;;;7.03;4.45;;;20.40;97.10;;;;;;5070766;28;20063;-45
2022/07/24 03:20:50;;;;;;;5.82;4.00;;;20.40;97.10;;;;;;5071198;28;20396;-47
2022/07/24 03:23:15;;;;;;;5.05;3.85;;;20.50;97.10;;;;;;5053370;28;20347;-49
2022/07/24 03:25:41;;;;;;;3.60;3.30;;;20.50;97.20;;;;;;5049075;28;20174;-51
2022/07/24 03:28:07;;;;;;;5.63;4.47;;;20.40;97.30;;;;;;5052077;28;20021;-51
2022/07/24 03:30:33;;;;;;;6.20;3.72;;;20.40;97.30;;;;;;5035359;28;20385;-44
2022/07/24 03:32:58;;;;;;;5.50;3.75;;;20.40;97.40;;;;;;5054901;28;20021;-52
2022/07/24 03:35:24;;;;;;;4.25;3.60;;;20.40;97.50;;;;;;5037366;28;20044;-51
2022/07/24 03:37:49;;;;;;;4.63;3.63;;;20.30;97.60;;;;;;5053836;28;20021;-48
2022/07/24 03:40:15;;;;;;;6.75;4.95;;;20.30;97.70;;;;;;5064806;28;20403;-47
2022/07/24 03:42:41;;;;;;;6.45;3.78;;;20.30;97.80;;;;;;5074936;28;20031;-50
2022/07/24 03:45:07;;;;;;;4.97;3.67;;;20.30;97.80;;;;;;5074745;28;20396;-52
2022/07/24 03:47:32;;;;;;;7.53;4.05;;;20.30;97.90;;;;;;5074036;28;20103;-46
2022/07/24 03:49:58;;;;;;;5.45;3.53;;;20.20;98.00;;;;;;5074381;28;20020;-47
2022/07/24 03:52:23;;;;;;;4.15;3.72;;;20.20;98.10;;;;;;5074863;28;20036;-49
2022/07/24 03:54:49;;;;;;;7.03;3.83;;;20.20;98.20;;;;;;5074817;28;20028;-48
2022/07/24 03:57:14;;;;;;;5.65;3.70;;;20.20;98.10;;;;;;5073913;28;20226;-47
2022/07/24 03:59:40;;;;;;;6.85;3.75;;;20.10;98.20;;;;;;5074567;28;20029;-46
2022/07/24 04:02:05;;;;;;;8.13;3.92;;;20.10;98.40;;;;;;5074539;28;20099;-48
2022/07/24 04:04:31;;;;;;;4.28;3.60;;;20.10;98.40;;;;;;5070176;28;20518;-49
2022/07/24 04:06:56;;;;;;;5.00;3.83;;;20.10;98.50;;;;;;5066511;28;20025;-50
2022/07/24 04:09:22;;;;;;;5.72;3.55;;;20.10;98.60;;;;;;5074190;28;20024;-50
2022/07/24 04:11:47;;;;;;;7.68;3.22;;;20.10;98.70;;;;;;5074531;28;20117;-50
2022/07/24 04:14:13;;;;;;;6.53;3.75;;;20.10;98.70;;;;;;5073936;28;20040;-50
2022/07/24 04:16:38;;;;;;;5.15;3.42;;;20.10;98.80;;;;;;5074447;28;20024;-51
2022/07/24 04:19:04;;;;;;;7.20;3.78;;;20.00;98.90;;;;;;5073603;28;20021;-47
2022/07/24 04:21:30;;;;;;;4.75;3.80;;;20.00;98.90;;;;;;5072963;28;20040;-49
2022/07/24 04:23:55;;;;;;;4.05;3.53;;;20.00;99.10;;;;;;5048338;28;20025;-49
2022/07/24 04:26:21;;;;;;;4.28;3.65;;;20.00;99.20;;;;;;5054349;28;20029;-49
2022/07/24 04:28:47;;;;;;;5.38;3.80;;;20.10;99.20;;;;;;5067774;28;20029;-46
2022/07/24 04:31:12;;;;;;;7.15;3.33;;;20.10;99.10;;;;;;5074185;28;20024;-51
2022/07/24 04:33:38;;;;;;;4.10;3.63;;;20.10;99.20;;;;;;5073974;28;20071;-47
2022/07/24 04:36:05;;;;;;;3.92;3.53;;;20.10;99.20;;;;;;5073939;28;20029;-49
2022/07/24 04:38:32;;;;;;;5.15;3.90;;;20.20;99.10;;;;;;5073351;28;20055;-49
2022/07/24 04:40:58;;;;;;;5.28;3.63;;;20.20;99.10;;;;;;5059371;28;20025;-49
2022/07/24 04:43:23;;;;;;;4.43;3.95;;;20.20;99.10;;;;;;5052783;28;20024;-49
2022/07/24 04:45:49;;;;;;;4.22;3.80;;;20.30;99.00;;;;;;5053883;28;20025;-48
2022/07/24 04:48:14;;;;;;;5.13;3.83;;;20.30;99.00;;;;;;5053129;28;20032;-48
2022/07/24 04:50:40;;;;;;;5.82;3.40;;;20.50;98.90;;;;;;5053746;28;20059;-51
2022/07/24 04:53:05;;;;;;;7.47;3.50;;;20.50;98.80;;;;;;5053611;28;20101;-48
2022/07/24 04:55:31;;;;;;;5.70;3.20;;;20.60;98.60;;;;;;5053601;28;20396;-49
2022/07/24 04:57:56;;;;;;;5.72;4.00;;;20.70;98.50;;;;;;5053016;28;20021;-47
2022/07/24 05:00:22;;;;;;;3.88;3.55;;;20.70;98.40;;;;;;5053499;28;20037;-48
2022/07/24 05:02:47;;;;;;;5.85;3.78;;;20.70;98.20;;;;;;5053532;28;20498;-47
2022/07/24 05:05:13;;;;;;;5.05;3.33;;;21.20;97.90;;;;;;5053234;28;20635;-50
2022/07/24 05:07:38;;;;;;;5.63;3.60;;;21.60;97.00;;;;;;5052911;28;20021;-51
2022/07/24 05:10:05;;;;;;;4.55;3.55;;;22.00;96.20;;;;;;5053130;28;20024;-49
2022/07/24 05:12:30;;;;;;;4.55;3.25;;;22.50;95.40;;;;;;5053340;28;20056;-47
2022/07/24 05:14:56;;;;;;;4.60;3.22;;;22.80;94.70;;;;;;5053166;28;20496;-47
2022/07/24 05:17:21;;;;;;;2.55;2.40;;;23.20;94.30;;;;;;5066061;28;20029;-49
2022/07/24 05:19:47;;;;;;;4.68;3.22;;;23.50;93.60;;;;;;5075577;28;20024;-48
2022/07/24 05:22:12;;;;;;;5.50;3.08;;;23.80;93.00;;;;;;5073006;28;20028;-50
2022/07/24 05:24:38;;;;;;;2.80;2.60;;;24.10;92.40;;;;;;5069822;28;20020;-48
2022/07/24 05:27:03;;;;;;;3.55;3.25;;;24.30;92.00;;;;;;5052456;28;20027;-49
2022/07/24 05:29:29;;;;;;;3.17;2.97;;;24.30;91.80;;;;;;5053090;28;20060;-52
2022/07/24 05:31:54;;;;;;;3.38;3.03;;;24.30;91.70;;;;;;5059887;28;20030;-49
2022/07/24 05:34:21;;;;;;;2.85;2.65;;;24.50;91.60;;;;;;5070301;28;20029;-47
2022/07/24 05:36:47;;;;;;;4.65;2.85;;;24.80;91.30;;;;;;5072164;28;20043;-49
2022/07/24 05:39:12;;;;;;;3.35;2.80;;;24.90;90.90;;;;;;5067388;28;20036;-49
2022/07/24 05:41:38;;;;;;;3.92;2.65;;;25.00;90.80;;;;;;5072962;28;20499;-51
2022/07/24 05:44:03;;;;;;;2.97;2.70;;;25.20;90.60;;;;;;5072049;28;20025;-52
2022/07/24 05:46:29;;;;;;;5.32;3.28;;;25.40;90.20;;;;;;5052641;28;20032;-49
2022/07/24 05:48:54;;;;;;;3.65;2.90;;;25.50;90.00;;;;;;5053559;28;20074;-46
2022/07/24 05:51:20;;;;;;;4.65;2.88;;;25.40;90.40;;;;;;5062729;28;20535;-48
2022/07/24 05:53:45;;;;;;;2.63;2.42;;;25.40;90.00;;;;;;5071936;28;20036;-47
2022/07/24 05:56:11;;;;;;;2.88;2.60;;;25.50;90.20;;;;;;5072112;28;20094;-47
2022/07/24 05:58:36;;;;;;;5.00;2.95;;;25.60;89.00;;;;;;5053797;28;20549;-45
2022/07/24 06:01:02;;;;;;;6.65;2.72;;;25.60;89.40;;;;;;5072472;28;20024;-46
2022/07/24 06:03:27;;;;;;;3.03;2.72;;;25.70;89.50;;;;;;5070580;28;20028;-50
2022/07/24 06:05:53;;;;;;;4.13;2.72;;;25.90;88.10;;;;;;5071621;28;20036;-48
2022/07/24 06:08:18;;;;;;;5.35;2.65;;;26.10;87.60;;;;;;5071874;28;20461;-49
2022/07/24 06:10:44;;;;;;;5.10;2.85;;;26.20;87.20;;;;;;5072187;28;20420;-47
2022/07/24 06:13:10;;;;;;;4.45;2.30;;;26.40;87.50;;;;;;5072087;28;20021;-46
2022/07/24 06:15:35;;;;;;;3.50;2.40;;;26.60;87.00;;;;;;5072726;28;20082;-46
2022/07/24 06:18:01;;;;;;;6.97;2.75;;;27.10;85.60;;;;;;5051908;28;20020;-46
2022/07/24 06:20:26;;;;;;;4.22;2.40;;;27.60;84.00;;;;;;5072011;28;20036;-46
2022/07/24 06:22:52;;;;;;;2.78;2.35;;;27.90;82.80;;;;;;5072025;28;20099;-46
2022/07/24 06:25:18;;;;;;;3.60;2.67;;;27.70;82.40;;;;;;5071993;28;20210;-47
2022/07/24 06:27:47;;;;;;;2.85;2.58;;;27.70;82.50;;;;;;5053377;28;20086;-47
2022/07/24 06:30:13;;;;;;;2.90;2.70;;;27.70;82.70;;;;;;5071816;28;20442;-46
2022/07/24 06:32:39;;;;;;;3.22;2.60;;;28.10;81.80;;;;;;5071707;28;20392;-45
2022/07/24 06:35:05;;;;;;;6.93;2.53;;;28.40;81.20;;;;;;5071781;28;20029;-48
2022/07/24 06:37:31;;;;;;;4.55;2.42;;;28.30;80.70;;;;;;5071200;28;20032;-48
2022/07/24 06:39:56;;;;;;;2.83;2.50;;;28.30;80.00;;;;;;5071824;28;20024;-52
2022/07/24 06:42:22;;;;;;;4.85;2.80;;;27.90;80.60;;;;;;5071678;28;20028;-49
2022/07/24 06:44:47;;;;;;;2.75;2.55;;;27.90;81.30;;;;;;5071716;28;20103;-49
2022/07/24 06:47:13;;;;;;;2.70;2.50;;;28.20;80.70;;;;;;5070858;28;20481;-47
2022/07/24 06:49:38;;;;;;;2.83;2.35;;;28.80;79.90;;;;;;5071698;28;20024;-47
2022/07/24 06:52:04;;;;;;;3.30;2.60;;;29.30;78.50;;;;;;5071693;28;20528;-48
2022/07/24 06:54:29;;;;;;;3.90;2.67;;;29.50;77.40;;;;;;5071628;28;20085;-50
2022/07/24 06:56:55;;;;;;;5.07;2.67;;;29.60;77.40;;;;;;5070991;28;20040;-46
2022/07/24 06:59:20;;;;;;;7.07;2.60;;;30.00;77.20;;;;;;5072216;28;20476;-47
2022/07/24 07:01:46;;;;;;;6.18;2.53;;;29.90;76.40;;;;;;5071660;28;20056;-48
2022/07/24 07:04:11;;;;;;;3.20;2.60;;;29.70;76.40;;;;;;5071371;28;20025;-52
2022/07/24 07:06:37;;;;;;;4.65;2.50;;;30.00;75.70;;;;;;5071516;28;20107;-46
2022/07/24 07:09:02;;;;;;;3.38;2.60;;;30.50;75.20;;;;;;5070998;28;20025;-48
2022/07/24 07:11:28;;;;;;;2.45;2.25;;;31.00;73.50;;;;;;5053634;28;20378;-49
2022/07/24 07:13:53;;;;;;;2.60;2.40;;;31.00;73.10;;;;;;5071325;28;20033;-51
2022/07/24 07:16:19;;;;;;;3.60;2.60;;;30.90;73.50;;;;;;5071919;28;20380;-50
2022/07/24 07:18:44;;;;;;;3.22;2.90;;;31.10;73.30;;;;;;5069848;28;20036;-49
2022/07/24 07:21:10;;;;;;;2.75;2.50;;;31.50;72.00;;;;;;5071488;28;20104;-47
2022/07/24 07:23:35;;;;;;;2.95;2.15;;;30.90;72.20;;;;;;5068080;28;20028;-47
2022/07/24 07:26:01;;;;;;;4.18;2.95;;;31.20;73.10;;;;;;5070798;28;20392;-48
2022/07/24 07:28:27;;;;;;;3.00;2.80;;;31.70;72.30;;;;;;5070614;28;20048;-50
2022/07/24 07:30:52;;;;;;;4.82;2.80;;;32.20;71.00;;;;;;5071451;28;20361;-47
2022/07/24 07:33:17;;;;;;;4.40;2.47;;;32.60;70.40;;;;;;5070929;28;20158;-51
2022/07/24 07:35:43;;;;;;;2.80;2.60;;;32.80;69.70;;;;;;5070861;28;20029;-49
2022/07/24 07:38:08;;;;;;;4.63;2.83;;;33.10;68.90;;;;;;5069699;28;20039;-51
2022/07/24 07:40:34;;;;;;;5.03;3.13;;;33.00;68.70;;;;;;5071161;28;20025;-50
2022/07/24 07:43:00;;;;;;;4.25;2.47;;;33.20;68.20;;;;;;5070595;28;20025;-49
2022/07/24 07:45:25;;;;;;;3.35;3.05;;;33.20;67.70;;;;;;5071000;28;20033;-47
2022/07/24 07:47:51;;;;;;;4.18;3.13;;;33.10;68.20;;;;;;5070445;28;20134;-48
2022/07/24 07:50:16;;;;;;;4.05;3.03;;;33.60;67.50;;;;;;5070141;28;20029;-47
2022/07/24 07:52:42;;;;;;;3.65;3.35;;;34.20;66.70;;;;;;5051618;28;20036;-47
2022/07/24 07:55:08;;;;;;;3.78;3.00;;;35.00;64.80;;;;;;5056847;28;20028;-48
2022/07/24 07:57:33;;;;;;;3.38;2.67;;;34.50;65.40;;;;;;5070210;28;20103;-47
2022/07/24 07:59:59;;;;;;;3.17;2.55;;;34.50;65.30;;;;;;5071128;28;20031;-51
2022/07/24 08:02:25;;;;;;;4.93;2.72;;;35.20;64.40;;;;;;5071021;28;20467;-49
2022/07/24 08:04:51;;;;;;;6.60;2.85;;;35.60;64.30;;;;;;5052901;28;20107;-51
2022/07/24 08:07:16;;;;;;;2.92;2.67;;;36.40;63.30;;;;;;5065455;28;20132;-46
2022/07/24 08:09:42;;;;;;;4.50;2.47;;;37.10;60.80;;;;;;5053307;28;20029;-47
2022/07/24 08:12:08;;;;;;;2.78;2.42;;;36.50;60.40;;;;;;5054970;28;20025;-47
2022/07/24 08:14:33;;;;;;;4.55;2.38;;;36.70;60.60;;;;;;5066483;28;20037;-47
2022/07/24 08:16:59;;;;;;;2.63;2.40;;;37.40;59.40;;;;;;5050766;28;20021;-46
2022/07/24 08:19:25;;;;;;;3.42;3.13;;;37.70;58.50;;;;;;5068025;28;20103;-47
2022/07/24 08:21:51;;;;;;;3.92;3.17;;;38.20;57.80;;;;;;5062720;28;20028;-49
2022/07/24 08:24:20;;;;;;;2.88;2.60;;;38.20;57.60;;;;;;5073866;28;20116;-46
2022/07/24 08:26:47;;;;;;;6.32;2.63;;;38.20;57.90;;;;;;5072113;28;20032;-47
2022/07/24 08:29:12;;;;;;;4.40;2.80;;;38.40;56.90;;;;;;5073207;28;20035;-47
2022/07/24 08:31:38;;;;;;;2.53;2.28;;;38.20;56.30;;;;;;5073698;28;20020;-47
2022/07/24 08:34:04;;;;;;;3.75;2.50;;;38.30;56.40;;;;;;5073423;28;20029;-45
2022/07/24 08:36:29;;;;;;;3.38;2.15;;;38.10;57.80;;;;;;5069014;28;20032;-46
2022/07/24 08:38:55;;;;;;;4.78;3.05;;;38.10;57.30;;;;;;5033398;28;20400;-49
2022/07/24 08:41:21;;;;;;;2.78;2.50;;;38.00;57.10;;;;;;5069127;28;20078;-46
2022/07/24 08:43:47;;;;;;;4.75;2.90;;;37.90;57.70;;;;;;5073427;28;20036;-51
2022/07/24 08:46:14;;;;;;;5.18;3.00;;;37.40;57.30;;;;;;5054623;28;20039;-50
2022/07/24 08:48:45;;;;;;;2.97;2.53;;;36.70;59.10;;;;;;5071905;28;20392;-50
2022/07/24 08:51:13;;;;;;;3.50;2.90;;;36.20;58.70;;;;;;5054000;28;20025;-49
2022/07/24 08:53:39;;;;;;;6.05;2.97;;;35.80;58.80;;;;;;5054896;28;20056;-49
2022/07/24 08:56:05;;;;;;;5.93;3.10;;;35.40;59.50;;;;;;5073822;28;20048;-49
2022/07/24 08:58:30;;;;;;;4.13;3.55;;;35.20;59.60;;;;;;5073086;28;20042;-49
2022/07/24 09:00:56;;;;;;;4.50;2.80;;;34.70;59.80;;;;;;5073712;28;20510;-48
2022/07/24 09:03:21;;;;;;;8.50;3.05;;;34.60;60.50;;;;;;5073573;28;20025;-50
2022/07/24 09:05:58;;;;;;;5.43;3.22;;;34.50;61.10;;;;;;5073556;28;20028;-49
2022/07/24 09:08:24;;;;;;;6.13;3.90;;;34.20;60.50;;;;;;5072828;28;20024;-48
2022/07/24 09:10:58;;;;;;;7.32;3.10;;;33.70;61.70;;;;;;5073772;28;20017;-47
2022/07/24 09:13:26;;;;;;;4.30;3.55;;;33.40;62.90;;;;;;5073143;28;20048;-46
2022/07/24 09:15:52;;;;;;;30.33;25.77;;;33.30;62.10;;;;;;5073743;28;20100;-50
2022/07/24 09:18:34;;;;;;;17.80;15.13;;;33.30;61.90;;;;;;5072609;28;20100;-49
2022/07/24 09:21:13;;;;;;;4.40;4.00;;;33.10;62.00;;;;;;5073311;28;20063;-47
2022/07/24 09:23:39;;;;;;;4.78;3.60;;;32.90;62.50;;;;;;5073187;28;20020;-49
2022/07/24 09:26:04;;;;;;;3.90;3.25;;;33.00;62.70;;;;;;5067154;28;20579;-45
2022/07/24 09:28:47;;;;;;;4.13;3.60;;;33.20;62.60;;;;;;5062041;28;20100;-45
2022/07/24 09:31:13;;;;;;;4.60;4.13;;;33.30;62.00;;;;;;5064215;28;20099;-45
2022/07/24 09:33:38;;;;;;;4.18;3.20;;;33.30;61.80;;;;;;5063644;28;20057;-46
2022/07/24 09:36:12;;;;;;;6.05;3.78;;;33.40;61.60;;;;;;5070281;28;20024;-47
2022/07/24 09:38:38;;;;;;;4.30;3.65;;;33.50;61.30;;;;;;5072384;28;20066;-47
2022/07/24 09:41:04;;;;;;;6.95;3.70;;;33.40;61.10;;;;;;5054873;28;20025;-48
2022/07/24 09:43:34;;;;;;;4.30;3.72;;;33.20;61.40;;;;;;5072692;28;20067;-45
2022/07/24 09:46:02;;;;;;;3.65;3.33;;;33.10;62.10;;;;;;5072675;28;20044;-49
2022/07/24 09:48:39;;;;;;;4.30;3.47;;;32.80;61.90;;;;;;5070107;28;20020;-45
2022/07/24 09:51:14;;;;;;;5.38;3.42;;;32.70;62.20;;;;;;5052988;28;20033;-47
2022/07/24 09:53:41;;;;;;;3.63;3.40;;;32.90;62.30;;;;;;5052435;28;20197;-47
2022/07/24 09:56:15;;;;;;;5.57;3.72;;;32.60;62.50;;;;;;5053095;28;20111;-49
2022/07/24 09:58:44;;;;;;;4.80;3.75;;;32.50;62.90;;;;;;5051935;28;20488;-47
2022/07/24 10:01:10;;;;;;;3.65;3.35;;;32.60;61.70;;;;;;5052556;28;20111;-46
2022/07/24 10:03:38;;;;;;;3.80;3.58;;;32.60;62.00;;;;;;5052581;28;20035;-47
2022/07/24 10:06:07;;;;;;;4.30;3.83;;;32.60;62.30;;;;;;5052394;28;20029;-49
2022/07/24 10:08:34;;;;;;;4.40;3.58;;;32.40;60.80;;;;;;5069586;28;20025;-46
2022/07/24 10:11:00;;;;;;;7.47;3.63;;;32.20;62.10;;;;;;5072147;28;20020;-47
2022/07/24 10:13:27;;;;;;;4.32;3.53;;;32.20;61.30;;;;;;5071729;28;20043;-48
2022/07/24 10:16:22;;;;;;;4.00;3.70;;;32.20;61.50;;;;;;5071802;28;20463;-56
2022/07/24 10:18:57;;;;;;;;;;;32.10;62.00;;;;;;5071736;28;20042;-48
2022/07/24 10:21:27;;;;;;;5.00;4.35;;;32.10;62.50;;;;;;5072463;28;20292;-46
2022/07/24 10:24:07;;;;;;;3.67;3.38;;;32.10;62.90;;;;;;5071736;28;20105;-47
2022/07/24 10:26:48;;;;;;;5.38;3.72;;;32.00;62.60;;;;;;5071929;28;20048;-49
2022/07/24 10:29:22;;;;;;;4.15;3.85;;;32.00;62.10;;;;;;5071907;28;20506;-46
2022/07/24 10:31:51;;;;;;;3.58;3.28;;;32.00;60.50;;;;;;5071932;28;20024;-46
2022/07/24 10:34:26;;;;;;;5.90;3.83;;;32.00;61.80;;;;;;5071628;28;20047;-47
2022/07/24 10:37:30;;;;;;;3.95;3.55;;;31.90;62.50;;;;;;5071311;28;20021;-51
2022/07/24 10:39:56;;;;;;;4.28;3.70;;;31.80;61.90;;;;;;5066922;28;20045;-48
2022/07/24 10:42:21;;;;;;;8.63;3.80;;;31.60;62.20;;;;;;5071627;28;20406;-47
2022/07/24 10:45:17;;;;;;;4.53;4.10;;;31.50;62.40;;;;;;5071478;28;20107;-46
2022/07/24 10:47:42;;;;;;;;;;;31.30;63.10;;;;;;5078981;28;20052;-46
2022/07/24 10:50:08;;;;;;;8.32;4.10;;;30.80;63.10;;;;;;5071796;28;19951;-46
2022/07/24 10:52:40;;;;;;;10.25;4.45;;;30.70;63.90;;;;;;5071492;28;20029;-48
2022/07/24 10:55:31;;;;;;;4.82;4.25;;;30.60;63.80;;;;;;5071594;28;20480;-49
2022/07/24 10:58:02;;;;;;;6.13;4.65;;;30.40;65.00;;;;;;5068488;28;20028;-51
2022/07/24 11:00:36;;;;;;;8.27;4.35;;;30.50;64.40;;;;;;5070576;28;20390;-47
2022/07/24 11:03:05;;;;;;;8.23;4.70;;;30.50;65.10;;;;;;5051470;28;20036;-46
2022/07/24 11:05:38;;;;;;;6.60;4.63;;;30.50;65.10;;;;;;5063711;28;20024;-45
2022/07/24 11:08:16;;;;;;;7.60;4.65;;;30.60;65.10;;;;;;5070654;28;20040;-49
2022/07/24 11:10:45;;;;;;;11.75;5.10;;;30.50;64.80;;;;;;5071290;28;20020;-48
2022/07/24 11:13:32;;;;;;;5.70;5.20;;;30.40;65.00;;;;;;5071134;28;20052;-46
2022/07/24 11:16:10;;;;;;;4.97;4.43;;;30.40;65.80;;;;;;5071112;28;20082;-48
2022/07/24 11:18:41;;;;;;;42.97;38.53;;;30.50;65.60;;;;;;5070585;28;20025;-47
2022/07/24 11:21:07;;;;;;;18.30;15.90;;;30.40;66.40;;;;;;5071058;28;20032;-48
2022/07/24 11:23:33;;;;;;;6.78;5.40;;;30.40;66.80;;;;;;5071209;28;20024;-45
2022/07/24 11:26:33;;;;;;;5.22;4.80;;;30.40;66.30;;;;;;5070918;28;20035;-51
2022/07/24 11:29:15;;;;;;;8.40;4.80;;;30.20;66.60;;;;;;5070718;28;20036;-49
2022/07/24 11:31:43;;;;;;;8.45;4.97;;;30.00;67.00;;;;;;5071097;28;20024;-46
2022/07/24 11:34:09;;;;;;;5.35;4.55;;;29.90;67.10;;;;;;5071205;28;20016;-46
2022/07/24 11:36:36;;;;;;;4.72;4.07;;;30.00;66.50;;;;;;5071103;28;20074;-47
2022/07/24 11:39:02;;;;;;;6.95;4.68;;;30.10;66.40;;;;;;5069987;28;20395;-46
2022/07/24 11:41:28;;;;;;;4.93;4.40;;;30.00;66.00;;;;;;5068392;28;20509;-48
2022/07/24 11:43:54;;;;;;;4.93;4.50;;;29.90;66.60;;;;;;5053031;28;20032;-48
2022/07/24 11:46:36;;;;;;;6.97;4.65;;;30.00;68.10;;;;;;5070306;28;20028;-50
2022/07/24 11:49:07;;;;;;;8.40;4.70;;;30.10;67.80;;;;;;5068982;28;20017;-46
2022/07/24 11:51:44;;;;;;;4.70;4.30;;;30.10;66.00;;;;;;5072469;28;20495;-46
2022/07/24 11:54:12;;;;;;;7.57;4.88;;;30.20;65.10;;;;;;5074611;28;20496;-45
2022/07/24 11:56:37;;;;;;;4.75;4.30;;;30.20;64.90;;;;;;5074795;28;20028;-52
2022/07/24 11:59:03;;;;;;;7.07;4.78;;;30.20;65.70;;;;;;5074043;28;20387;-46
2022/07/24 12:01:29;;;;;;;7.32;4.78;;;30.20;66.20;;;;;;5074342;28;20032;-49
2022/07/24 12:03:59;;;;;;;5.18;4.78;;;30.30;66.20;;;;;;5074366;28;20037;-51
2022/07/24 12:06:26;;;;;;;5.43;4.93;;;30.30;65.80;;;;;;5074962;28;20059;-51
2022/07/24 12:08:57;;;;;;;7.45;4.88;;;30.10;66.50;;;;;;5073828;28;20384;-45
2022/07/24 12:11:23;;;;;;;9.82;4.70;;;30.00;66.50;;;;;;5074526;28;20017;-49
2022/07/24 12:13:52;;;;;;;5.43;4.55;;;30.00;66.60;;;;;;5073785;28;20051;-48
2022/07/24 12:16:25;;;;;;;11.60;4.85;;;30.00;66.00;;;;;;5072515;28;20431;-51
2022/07/24 12:18:51;;;;;;;8.10;4.47;;;30.00;67.00;;;;;;5073757;28;20020;-52
2022/07/24 12:21:18;;;;;;;5.43;4.57;;;30.00;67.00;;;;;;5074367;28;20081;-45
2022/07/24 12:23:46;;;;;;;5.97;5.30;;;30.00;66.80;;;;;;5073807;28;20033;-48
2022/07/24 12:26:11;;;;;;;4.85;4.18;;;29.90;67.20;;;;;;5074256;28;20048;-49
2022/07/24 12:28:37;;;;;;;5.57;4.70;;;29.90;67.90;;;;;;5073672;28;20059;-47
2022/07/24 12:31:08;;;;;;;4.50;4.18;;;29.80;65.60;;;;;;5074284;28;20141;-47
2022/07/24 12:33:34;;;;;;;5.20;4.70;;;29.90;65.40;;;;;;5074170;28;20031;-49
2022/07/24 12:36:08;;;;;;;7.38;4.60;;;29.80;66.00;;;;;;5074052;28;20020;-49
2022/07/24 12:38:36;;;;;;;6.78;4.80;;;29.90;66.50;;;;;;5073276;28;20025;-47
2022/07/24 12:41:14;;;;;;;5.25;4.72;;;30.00;65.70;;;;;;5074265;28;20404;-50
2022/07/24 12:44:01;;;;;;;5.10;4.60;;;30.00;65.70;;;;;;5073994;28;20032;-45
2022/07/24 12:46:42;;;;;;;6.10;5.25;;;30.00;67.70;;;;;;5073614;28;20031;-45
2022/07/24 12:49:12;;;;;;;5.47;5.07;;;30.00;67.30;;;;;;5073361;28;20451;-46